Time;durP1;ratioP1;P1;durP2;ratioP2;P2;SDS_P1;SDS_P2;PMS_P1;PMS_P2;Temp;Humidity;BMP_temperature;BMP_pressure;BME280_temperature;BME280_humidity;BME280_pressure;Samples;Min_cycle;Max_cycle;Signal;HPM_P1;HPM_P2
2023/11/14 00:02:17;;;;;;;9.82;1.73;;;;;;;;;;5934676;29;20522;-82
2023/11/14 00:05:19;;;;;;;10.32;1.63;;;;;;;;;;5911080;29;20114;-83
2023/11/14 00:08:20;;;;;;;10.88;1.70;;;;;;;;;;5923207;29;20047;-82
2023/11/14 00:11:24;;;;;;;11.35;1.88;;;;;;;;;;5911355;29;20055;-82
2023/11/14 00:14:26;;;;;;;13.48;1.52;;;;;;;;;;5958844;29;20084;-81
2023/11/14 00:17:28;;;;;;;7.15;1.45;;;;;;;;;;5946618;29;20495;-81
2023/11/14 00:20:30;;;;;;;9.73;1.75;;;;;;;;;;5936997;29;20047;-82
2023/11/14 00:23:32;;;;;;;10.82;2.30;;;;;;;;;;5921483;29;20066;-81
2023/11/14 00:26:34;;;;;;;11.98;1.40;;;;;;;;;;5905705;29;20071;-83
2023/11/14 00:29:36;;;;;;;11.13;1.60;;;;;;;;;;5916631;29;20055;-81
2023/11/14 00:32:38;;;;;;;12.13;1.63;;;;;;;;;;5920821;29;20058;-83
2023/11/14 00:35:40;;;;;;;9.15;1.95;;;;;;;;;;5923485;29;20055;-83
2023/11/14 00:38:41;;;;;;;10.02;1.58;;;;;;;;;;5922855;29;20068;-83
2023/11/14 00:41:44;;;;;;;12.57;1.92;;;;;;;;;;5919422;29;20428;-82
2023/11/14 00:44:46;;;;;;;15.10;1.98;;;;;;;;;;5935133;29;20531;-84
2023/11/14 00:47:47;;;;;;;9.15;1.35;;;;;;;;;;5921930;29;20047;-84
2023/11/14 00:50:50;;;;;;;6.20;1.73;;;;;;;;;;5922111;29;20059;-83
2023/11/14 00:53:51;;;;;;;10.50;1.20;;;;;;;;;;5929078;29;20058;-83
2023/11/14 00:56:53;;;;;;;13.98;2.20;;;;;;;;;;5921741;29;20055;-84
2023/11/14 00:59:55;;;;;;;9.68;1.17;;;;;;;;;;5924164;29;20054;-82
2023/11/14 01:03:00;;;;;;;8.00;2.00;;;;;;;;;;5921673;29;20444;-82
2023/11/14 01:06:04;;;;;;;8.65;1.70;;;;;;;;;;5936669;29;20070;-82
2023/11/14 01:09:06;;;;;;;11.25;1.52;;;;;;;;;;5918172;30;20047;-82
2023/11/14 01:12:07;;;;;;;15.80;2.20;;;;;;;;;;5915160;30;20063;-82
2023/11/14 01:15:10;;;;;;;9.75;1.85;;;;;;;;;;5913676;30;20063;-81
2023/11/14 01:18:12;;;;;;;12.50;1.55;;;;;;;;;;5914167;30;20051;-82
2023/11/14 01:21:15;;;;;;;11.27;1.98;;;;;;;;;;5901561;30;20139;-83
2023/11/14 01:24:17;;;;;;;5.78;1.17;;;;;;;;;;5916608;29;20101;-83
2023/11/14 01:27:19;;;;;;;12.85;1.73;;;;;;;;;;5912761;30;20091;-82
2023/11/14 01:30:21;;;;;;;7.05;1.50;;;;;;;;;;5918807;30;20062;-81
2023/11/14 01:33:22;;;;;;;7.80;1.20;;;;;;;;;;5913989;30;20505;-82
2023/11/14 01:36:24;;;;;;;10.10;1.73;;;;;;;;;;5919293;30;20055;-82
2023/11/14 01:39:27;;;;;;;11.48;1.73;;;;;;;;;;5918194;30;20044;-85
2023/11/14 01:42:28;;;;;;;10.68;1.33;;;;;;;;;;5920545;29;20115;-83
2023/11/14 01:45:31;;;;;;;9.90;1.60;;;;;;;;;;5918596;30;20547;-83
2023/11/14 01:48:33;;;;;;;10.23;2.17;;;;;;;;;;5911690;29;20056;-81
2023/11/14 01:51:36;;;;;;;10.88;1.90;;;;;;;;;;5895790;30;20052;-81
2023/11/14 01:54:40;;;;;;;;;;;;;;;;;;5910447;30;20060;-81
2023/11/14 01:57:42;;;;;;;8.82;1.23;;;;;;;;;;5892643;30;19937;-81
2023/11/14 02:00:44;;;;;;;8.18;1.58;;;;;;;;;;5902640;29;20055;-80
2023/11/14 02:03:45;;;;;;;12.02;1.98;;;;;;;;;;5905970;30;20052;-81
2023/11/14 02:06:48;;;;;;;13.25;1.95;;;;;;;;;;5905226;30;20137;-82
2023/11/14 02:09:50;;;;;;;12.75;1.60;;;;;;;;;;5923122;29;20048;-85
2023/11/14 02:12:52;;;;;;;7.57;1.55;;;;;;;;;;5929639;29;20076;-83
2023/11/14 02:15:53;;;;;;;10.73;1.95;;;;;;;;;;5909658;30;20432;-83
2023/11/14 02:18:55;;;;;;;13.57;1.92;;;;;;;;;;5915262;30;20048;-82
2023/11/14 02:21:58;;;;;;;;;;;;;;;;;;5907503;29;20051;-82
2023/11/14 02:25:01;;;;;;;11.55;1.80;;;;;;;;;;5908182;29;20028;-84
2023/11/14 02:28:03;;;;;;;13.20;2.08;;;;;;;;;;5900017;29;20051;-83
2023/11/14 02:31:04;;;;;;;15.65;2.10;;;;;;;;;;5914591;29;20071;-83
2023/11/14 02:34:06;;;;;;;10.02;1.60;;;;;;;;;;5909526;29;20526;-84
2023/11/14 02:37:08;;;;;;;12.15;1.73;;;;;;;;;;5915695;29;20064;-83
2023/11/14 02:40:10;;;;;;;14.65;1.85;;;;;;;;;;5914361;29;20059;-84
2023/11/14 02:43:12;;;;;;;10.13;1.83;;;;;;;;;;5914487;29;20109;-83
2023/11/14 02:46:14;;;;;;;11.73;1.60;;;;;;;;;;5912940;29;20072;-82
2023/11/14 02:49:33;;;;;;;11.65;1.70;;;;;;;;;;5900051;29;20047;-83
2023/11/14 02:52:37;;;;;;;8.80;1.52;;;;;;;;;;5906271;29;20051;-82
2023/11/14 02:55:43;;;;;;;15.45;1.55;;;;;;;;;;5897832;30;20106;-83
2023/11/14 02:58:45;;;;;;;11.68;1.65;;;;;;;;;;5926306;29;20055;-83
2023/11/14 03:01:47;;;;;;;17.23;2.45;;;;;;;;;;5912153;30;20516;-85
2023/11/14 03:04:51;;;;;;;10.25;1.88;;;;;;;;;;5938757;29;20059;-84
2023/11/14 03:07:52;;;;;;;11.57;2.83;;;;;;;;;;5922370;29;20057;-82
2023/11/14 03:10:56;;;;;;;10.57;1.73;;;;;;;;;;5919883;29;20055;-83
2023/11/14 03:13:58;;;;;;;12.38;1.70;;;;;;;;;;5926785;29;20066;-84
2023/11/14 03:16:59;;;;;;;8.68;2.20;;;;;;;;;;5921644;29;20096;-84
2023/11/14 03:20:01;;;;;;;14.50;2.95;;;;;;;;;;5936924;29;20114;-83
2023/11/14 03:23:03;;;;;;;10.35;2.00;;;;;;;;;;5925169;29;20519;-84
2023/11/14 03:26:06;;;;;;;10.38;2.08;;;;;;;;;;5938152;29;20059;-83
2023/11/14 03:29:10;;;;;;;10.10;2.00;;;;;;;;;;5943409;30;20039;-83
2023/11/14 03:32:12;;;;;;;8.55;1.95;;;;;;;;;;5940262;29;20185;-82
2023/11/14 03:35:14;;;;;;;13.75;2.00;;;;;;;;;;5938686;29;20051;-81
2023/11/14 03:38:16;;;;;;;9.63;2.30;;;;;;;;;;5919195;30;20059;-83
2023/11/14 03:41:17;;;;;;;11.48;2.42;;;;;;;;;;5933670;29;20138;-82
2023/11/14 03:44:19;;;;;;;10.82;1.70;;;;;;;;;;5920368;30;20050;-82
2023/11/14 03:47:21;;;;;;;9.73;1.50;;;;;;;;;;5936146;29;20051;-83
2023/11/14 03:50:23;;;;;;;13.20;2.42;;;;;;;;;;5916350;30;20062;-84
2023/11/14 03:53:25;;;;;;;12.32;1.90;;;;;;;;;;5918183;29;20525;-83
2023/11/14 03:56:27;;;;;;;9.75;2.03;;;;;;;;;;5920171;30;20062;-82
2023/11/14 03:59:29;;;;;;;9.18;1.27;;;;;;;;;;5940509;29;20048;-82
2023/11/14 04:02:31;;;;;;;11.55;1.83;;;;;;;;;;5902904;29;20503;-83
2023/11/14 04:05:32;;;;;;;12.18;2.05;;;;;;;;;;5917844;29;20048;-84
2023/11/14 04:08:34;;;;;;;14.35;2.03;;;;;;;;;;5919181;29;20579;-83
2023/11/14 04:11:49;;;;;;;10.75;1.80;;;;;;;;;;5919119;29;20051;-83
2023/11/14 04:14:52;;;;;;;14.70;1.98;;;;;;;;;;5916662;29;20068;-83
2023/11/14 04:17:54;;;;;;;20.73;2.85;;;;;;;;;;5918155;29;20058;-82
2023/11/14 04:20:58;;;;;;;11.50;2.20;;;;;;;;;;5922686;29;20049;-82
2023/11/14 04:24:00;;;;;;;18.20;2.45;;;;;;;;;;5907090;29;20078;-83
2023/11/14 04:27:02;;;;;;;16.67;2.58;;;;;;;;;;5918363;29;20063;-82
2023/11/14 04:30:05;;;;;;;8.43;1.75;;;;;;;;;;5918807;29;20074;-83
2023/11/14 04:33:08;;;;;;;12.82;1.70;;;;;;;;;;5932330;29;20054;-83
2023/11/14 04:36:10;;;;;;;13.25;2.55;;;;;;;;;;5904052;29;20068;-82
2023/11/14 04:39:12;;;;;;;13.02;2.70;;;;;;;;;;5904631;29;20087;-83
2023/11/14 04:42:14;;;;;;;11.60;3.17;;;;;;;;;;5918617;29;20119;-84
2023/11/14 04:45:17;;;;;;;8.38;1.80;;;;;;;;;;5903796;29;20043;-82
2023/11/14 04:48:19;;;;;;;11.90;1.92;;;;;;;;;;5920253;29;20078;-82
2023/11/14 04:51:21;;;;;;;9.68;1.50;;;;;;;;;;5923305;29;20444;-82
2023/11/14 04:54:23;;;;;;;12.70;2.20;;;;;;;;;;5922493;29;20055;-84
2023/11/14 04:57:25;;;;;;;10.85;2.25;;;;;;;;;;5921401;29;20059;-83
2023/11/14 05:00:28;;;;;;;12.23;1.85;;;;;;;;;;5921094;29;20074;-83
2023/11/14 05:03:30;;;;;;;10.90;2.50;;;;;;;;;;5925754;29;20089;-84
2023/11/14 05:06:32;;;;;;;9.73;1.80;;;;;;;;;;5922506;29;20081;-83
2023/11/14 05:09:35;;;;;;;12.23;1.95;;;;;;;;;;5905943;29;20051;-81
2023/11/14 05:12:37;;;;;;;11.38;1.60;;;;;;;;;;5937354;29;20771;-84
2023/11/14 05:15:38;;;;;;;8.90;1.90;;;;;;;;;;5902762;29;20059;-83
2023/11/14 05:18:40;;;;;;;18.70;2.53;;;;;;;;;;5940826;29;20080;-82
2023/11/14 05:21:42;;;;;;;12.13;2.08;;;;;;;;;;5909751;29;20139;-84
2023/11/14 05:24:44;;;;;;;10.20;2.03;;;;;;;;;;5920726;29;20066;-84
2023/11/14 05:27:46;;;;;;;13.95;1.92;;;;;;;;;;5940948;29;20055;-84
2023/11/14 05:30:48;;;;;;;10.57;2.13;;;;;;;;;;5939953;29;20066;-83
2023/11/14 05:33:51;;;;;;;12.65;1.98;;;;;;;;;;5921720;29;20066;-84
2023/11/14 05:36:52;;;;;;;15.17;2.50;;;;;;;;;;5920383;29;20047;-83
2023/11/14 05:39:55;;;;;;;19.40;2.22;;;;;;;;;;5917667;29;20500;-84
2023/11/14 05:42:57;;;;;;;18.30;2.30;;;;;;;;;;5922339;29;20051;-84
2023/11/14 05:46:00;;;;;;;10.95;1.90;;;;;;;;;;5936545;29;20051;-84
2023/11/14 05:49:02;;;;;;;10.27;1.83;;;;;;;;;;5921854;29;20054;-83
2023/11/14 05:52:04;;;;;;;11.07;1.80;;;;;;;;;;5920287;29;20051;-83
2023/11/14 05:55:07;;;;;;;15.07;2.42;;;;;;;;;;5910672;29;20047;-81
2023/11/14 05:58:08;;;;;;;9.30;2.00;;;;;;;;;;5935587;29;20058;-82
2023/11/14 06:01:10;;;;;;;12.40;2.20;;;;;;;;;;5911143;29;20051;-84
2023/11/14 06:04:12;;;;;;;13.82;2.33;;;;;;;;;;5921747;29;20055;-83
2023/11/14 06:07:14;;;;;;;13.27;2.35;;;;;;;;;;5925808;29;20062;-83
2023/11/14 06:10:16;;;;;;;15.57;2.20;;;;;;;;;;5923707;29;20108;-84
2023/11/14 06:13:18;;;;;;;14.07;2.38;;;;;;;;;;5920044;29;20058;-84
2023/11/14 06:16:20;;;;;;;8.52;2.58;;;;;;;;;;5934381;29;20526;-82
2023/11/14 06:19:24;;;;;;;9.75;1.98;;;;;;;;;;5936329;29;20061;-84
2023/11/14 06:22:26;;;;;;;17.47;2.30;;;;;;;;;;5924514;29;20061;-84
2023/11/14 06:25:28;;;;;;;11.63;2.20;;;;;;;;;;5923519;29;20052;-82
2023/11/14 06:28:29;;;;;;;16.45;2.65;;;;;;;;;;5949222;29;20060;-81
2023/11/14 06:31:31;;;;;;;11.65;1.85;;;;;;;;;;5954646;29;20039;-81
2023/11/14 06:34:33;;;;;;;14.45;3.70;;;;;;;;;;5900178;30;20063;-81
2023/11/14 06:37:36;;;;;;;14.98;2.40;;;;;;;;;;5898408;30;20125;-82
2023/11/14 06:40:39;;;;;;;15.15;2.83;;;;;;;;;;5895065;30;20056;-82
2023/11/14 06:43:41;;;;;;;18.45;2.70;;;;;;;;;;5892203;30;20544;-82
2023/11/14 06:46:43;;;;;;;9.98;2.55;;;;;;;;;;5892780;30;20067;-81
2023/11/14 06:49:45;;;;;;;14.37;2.43;;;;;;;;;;5909835;30;20070;-82
2023/11/14 06:52:47;;;;;;;9.37;1.83;;;;;;;;;;5892391;30;20072;-81
2023/11/14 06:55:49;;;;;;;11.27;2.22;;;;;;;;;;5909736;30;20052;-81
2023/11/14 06:58:51;;;;;;;16.20;2.65;;;;;;;;;;5893405;30;20056;-81
2023/11/14 07:01:53;;;;;;;11.15;1.90;;;;;;;;;;5923492;29;20613;-82
2023/11/14 07:04:54;;;;;;;12.73;2.38;;;;;;;;;;5918831;30;20052;-81
2023/11/14 07:07:57;;;;;;;12.75;2.72;;;;;;;;;;5924473;30;20559;-83
2023/11/14 07:10:59;;;;;;;10.60;2.33;;;;;;;;;;5923858;30;20146;-82
2023/11/14 07:14:01;;;;;;;11.23;2.33;;;;;;;;;;5895355;30;20075;-82
2023/11/14 07:17:03;;;;;;;9.30;2.25;;;;;;;;;;5913922;30;20058;-84
2023/11/14 07:20:10;;;;;;;10.10;1.95;;;;;;;;;;5902063;30;20067;-83
2023/11/14 07:23:12;;;;;;;10.98;2.00;;;;;;;;;;5919191;30;20816;-83
2023/11/14 07:26:13;;;;;;;12.48;2.83;;;;;;;;;;5898665;30;20062;-82
2023/11/14 07:29:21;;;;;;;10.60;2.00;;;;;;;;;;5904828;30;20055;-83
2023/11/14 07:32:23;;;;;;;13.38;1.95;;;;;;;;;;5902940;30;20155;-83
2023/11/14 07:35:26;;;;;;;15.15;2.13;;;;;;;;;;5898564;30;20052;-85
2023/11/14 07:38:28;;;;;;;19.70;3.10;;;;;;;;;;5896047;30;20060;-86
2023/11/14 07:41:29;;;;;;;16.95;2.65;;;;;;;;;;5915741;30;20059;-85
2023/11/14 07:44:31;;;;;;;10.75;1.92;;;;;;;;;;5929090;29;20058;-85
2023/11/14 07:47:33;;;;;;;10.55;2.42;;;;;;;;;;5898593;30;20427;-87
2023/11/14 07:50:35;;;;;;;10.45;1.92;;;;;;;;;;5914400;30;20635;-85
2023/11/14 07:53:36;;;;;;;12.88;2.60;;;;;;;;;;5899560;30;20078;-85
2023/11/14 07:56:41;;;;;;;10.32;1.95;;;;;;;;;;5917695;29;20051;-85
2023/11/14 07:59:43;;;;;;;18.20;2.30;;;;;;;;;;5911358;30;20047;-84
2023/11/14 08:02:44;;;;;;;11.07;1.60;;;;;;;;;;5906565;30;20080;-84
2023/11/14 08:05:46;;;;;;;11.15;2.03;;;;;;;;;;5908876;30;20044;-84
2023/11/14 08:08:52;;;;;;;11.20;1.98;;;;;;;;;;5905198;30;20056;-85
2023/11/14 08:11:54;;;;;;;9.48;1.98;;;;;;;;;;5909199;30;20124;-84
2023/11/14 08:14:56;;;;;;;9.25;1.77;;;;;;;;;;5907356;30;20048;-85
2023/11/14 08:17:58;;;;;;;10.45;1.88;;;;;;;;;;5910431;30;20051;-85
2023/11/14 08:21:00;;;;;;;11.18;2.08;;;;;;;;;;5919237;29;20387;-86
2023/11/14 08:24:01;;;;;;;13.10;2.20;;;;;;;;;;5899595;30;20059;-84
2023/11/14 08:27:04;;;;;;;9.30;1.98;;;;;;;;;;5909252;30;20059;-85
2023/11/14 08:30:07;;;;;;;15.50;2.35;;;;;;;;;;5916781;30;20579;-87
2023/11/14 08:33:10;;;;;;;9.95;2.42;;;;;;;;;;5902004;30;20190;-86
2023/11/14 08:36:12;;;;;;;10.45;2.05;;;;;;;;;;5920087;30;20075;-86
2023/11/14 08:39:13;;;;;;;11.65;2.25;;;;;;;;;;5912815;30;20062;-85
2023/11/14 08:42:15;;;;;;;12.85;2.25;;;;;;;;;;5918139;30;20135;-86
2023/11/14 08:45:17;;;;;;;14.60;3.08;;;;;;;;;;5903042;30;20067;-85
2023/11/14 08:48:19;;;;;;;14.45;2.42;;;;;;;;;;5914145;30;20056;-84
2023/11/14 08:51:21;;;;;;;6.30;1.90;;;;;;;;;;5912772;30;20523;-84
2023/11/14 08:54:23;;;;;;;8.82;2.25;;;;;;;;;;5919687;29;20051;-85
2023/11/14 08:57:25;;;;;;;10.30;1.60;;;;;;;;;;5916737;30;20052;-85
2023/11/14 09:00:29;;;;;;;14.93;2.10;;;;;;;;;;5916298;30;20079;-86
2023/11/14 09:03:31;;;;;;;11.77;1.67;;;;;;;;;;5900810;30;20054;-85
2023/11/14 09:06:32;;;;;;;5.85;1.60;;;;;;;;;;5931209;29;20059;-85
2023/11/14 09:09:34;;;;;;;9.85;2.03;;;;;;;;;;5912748;30;20063;-86
2023/11/14 09:12:36;;;;;;;11.15;2.10;;;;;;;;;;5916115;30;20059;-85
2023/11/14 09:15:39;;;;;;;9.35;1.40;;;;;;;;;;5915672;29;20059;-85
2023/11/14 09:18:42;;;;;;;6.72;1.50;;;;;;;;;;5919968;30;20500;-83
2023/11/14 09:21:44;;;;;;;8.60;2.00;;;;;;;;;;5934588;29;20064;-86
2023/11/14 09:24:45;;;;;;;7.00;1.35;;;;;;;;;;5916467;30;20093;-86
2023/11/14 09:27:47;;;;;;;9.07;1.58;;;;;;;;;;5915563;30;20062;-87
2023/11/14 09:30:49;;;;;;;11.65;2.05;;;;;;;;;;5914811;29;20055;-85
2023/11/14 09:33:51;;;;;;;11.05;2.75;;;;;;;;;;5900989;30;20055;-84
2023/11/14 09:36:53;;;;;;;9.40;1.60;;;;;;;;;;5917017;30;20795;-86
2023/11/14 09:39:55;;;;;;;8.80;1.67;;;;;;;;;;5916687;30;20066;-85
2023/11/14 09:42:56;;;;;;;9.88;1.90;;;;;;;;;;5902376;30;20048;-84
2023/11/14 09:45:58;;;;;;;7.57;1.50;;;;;;;;;;5918150;30;20060;-83
2023/11/14 09:49:04;;;;;;;11.65;2.13;;;;;;;;;;5906387;30;20519;-84
2023/11/14 09:52:06;;;;;;;10.10;2.30;;;;;;;;;;5935128;29;20101;-85
2023/11/14 09:55:11;;;;;;;7.75;1.50;;;;;;;;;;5913797;30;20084;-85
2023/11/14 09:58:13;;;;;;;6.75;2.10;;;;;;;;;;5912371;30;20071;-83
2023/11/14 10:01:14;;;;;;;7.63;1.50;;;;;;;;;;5913980;30;20060;-84
2023/11/14 10:04:16;;;;;;;6.85;1.40;;;;;;;;;;5914645;30;20063;-82
2023/11/14 10:07:20;;;;;;;11.68;1.52;;;;;;;;;;5911811;30;20036;-83
2023/11/14 10:10:22;;;;;;;12.43;1.80;;;;;;;;;;5909292;30;20055;-82
2023/11/14 10:13:23;;;;;;;11.07;1.80;;;;;;;;;;5914946;29;20059;-82
2023/11/14 10:16:25;;;;;;;10.90;1.55;;;;;;;;;;5899321;29;20082;-82
2023/11/14 10:19:26;;;;;;;9.20;1.75;;;;;;;;;;5938496;29;20059;-83
2023/11/14 10:22:29;;;;;;;8.25;1.50;;;;;;;;;;5927799;30;20057;-84
2023/11/14 10:25:33;;;;;;;5.40;1.20;;;;;;;;;;5923869;30;20076;-84
2023/11/14 10:28:35;;;;;;;5.93;1.50;;;;;;;;;;5941657;29;20071;-82
2023/11/14 10:31:38;;;;;;;7.57;1.10;;;;;;;;;;5938429;29;20055;-84
2023/11/14 10:34:40;;;;;;;6.63;1.70;;;;;;;;;;5934146;29;20086;-84
2023/11/14 10:37:42;;;;;;;8.18;1.40;;;;;;;;;;5934559;29;20051;-85
2023/11/14 10:40:51;;;;;;;5.38;1.27;;;;;;;;;;5935387;29;20851;-84
2023/11/14 10:43:53;;;;;;;4.93;1.70;;;;;;;;;;5920287;29;20055;-83
2023/11/14 10:46:58;;;;;;;6.05;1.30;;;;;;;;;;5913826;29;20055;-84
2023/11/14 10:50:00;;;;;;;5.78;1.55;;;;;;;;;;5930771;29;20055;-82
2023/11/14 10:53:03;;;;;;;4.75;1.27;;;;;;;;;;5932386;29;20147;-84
2023/11/14 10:56:06;;;;;;;3.38;1.08;;;;;;;;;;5904299;29;20076;-82
2023/11/14 10:59:10;;;;;;;6.00;1.42;;;;;;;;;;5919352;29;20534;-82
2023/11/14 11:02:13;;;;;;;;;;;;;;;;;;5935257;29;20052;-84
2023/11/14 11:05:16;;;;;;;4.93;1.25;;;;;;;;;;5917254;29;19930;-83
2023/11/14 11:08:31;;;;;;;2.75;0.95;;;;;;;;;;5936556;29;20058;-86
2023/11/14 11:11:38;;;;;;;5.20;1.30;;;;;;;;;;5936485;29;20051;-85
2023/11/14 11:14:41;;;;;;;6.38;1.60;;;;;;;;;;5919984;29;20063;-85
2023/11/14 11:17:45;;;;;;;10.43;1.85;;;;;;;;;;5915428;29;20050;-85
2023/11/14 11:20:48;;;;;;;8.68;1.60;;;;;;;;;;5908467;29;20059;-83
2023/11/14 11:24:10;;;;;;;8.23;1.98;;;;;;;;;;5924095;30;20063;-83
2023/11/14 11:27:12;;;;;;;6.50;1.70;;;;;;;;;;5913621;29;20146;-83
2023/11/14 11:30:14;;;;;;;11.15;1.88;;;;;;;;;;5916395;30;20067;-84
2023/11/14 11:33:36;;;;;;;8.00;2.10;;;;;;;;;;5935046;29;20080;-85
2023/11/14 11:36:38;;;;;;;12.38;2.10;;;;;;;;;;5918630;29;20165;-83
2023/11/14 11:40:07;;;;;;;11.60;1.90;;;;;;;;;;5915435;30;20083;-83
2023/11/14 11:43:09;;;;;;;7.95;1.70;;;;;;;;;;5927785;29;20047;-83
2023/11/14 11:46:32;;;;;;;16.33;2.40;;;;;;;;;;5931636;29;20119;-82
2023/11/14 11:49:35;;;;;;;10.75;2.40;;;;;;;;;;5930938;30;20071;-81
2023/11/14 11:52:37;;;;;;;10.30;2.05;;;;;;;;;;5920655;30;20071;-84
2023/11/14 11:55:39;;;;;;;13.30;1.90;;;;;;;;;;5905690;29;20059;-83
2023/11/14 11:58:48;;;;;;;9.83;1.97;;;;;;;;;;5937793;29;20051;-82
2023/11/14 12:01:52;;;;;;;10.63;2.20;;;;;;;;;;5922930;29;20482;-83
2023/11/14 12:04:55;;;;;;;8.68;2.05;;;;;;;;;;5945783;29;20051;-84
2023/11/14 12:07:59;;;;;;;9.90;2.28;;;;;;;;;;5950056;29;20055;-85
2023/11/14 12:11:02;;;;;;;11.05;2.63;;;;;;;;;;5949980;29;20050;-83
2023/11/14 12:14:04;;;;;;;7.93;2.08;;;;;;;;;;5929692;29;20053;-82
2023/11/14 12:17:06;;;;;;;8.17;1.80;;;;;;;;;;5912336;30;20047;-80
2023/11/14 12:20:09;;;;;;;11.98;2.60;;;;;;;;;;5925510;29;20043;-82
2023/11/14 12:23:14;;;;;;;11.55;1.90;;;;;;;;;;5906443;30;20058;-82
2023/11/14 12:26:16;;;;;;;15.00;2.60;;;;;;;;;;5928718;30;20047;-82
2023/11/14 12:29:19;;;;;;;10.15;1.98;;;;;;;;;;5938086;29;20057;-83
2023/11/14 12:32:20;;;;;;;;;;;;;;;;;;5939583;29;20128;-83
2023/11/14 12:35:22;;;;;;;8.88;2.25;;;;;;;;;;5923429;30;19929;-85
2023/11/14 12:38:36;;;;;;;13.10;2.47;;;;;;;;;;5924418;29;20090;-84
2023/11/14 12:41:57;;;;;;;8.60;2.22;;;;;;;;;;5920070;29;20638;-85
2023/11/14 12:45:04;;;;;;;16.50;2.30;;;;;;;;;;5921588;29;20055;-85
2023/11/14 12:48:08;;;;;;;14.82;2.50;;;;;;;;;;5922867;29;20054;-84
2023/11/14 12:51:11;;;;;;;10.90;2.15;;;;;;;;;;5920931;30;20055;-84
2023/11/14 12:54:15;;;;;;;10.88;2.03;;;;;;;;;;5906741;29;20051;-84
2023/11/14 12:57:16;;;;;;;14.20;2.40;;;;;;;;;;5928400;30;20051;-86
2023/11/14 13:00:18;;;;;;;9.57;2.42;;;;;;;;;;5919922;29;20456;-86
2023/11/14 13:03:20;;;;;;;11.70;2.75;;;;;;;;;;5907247;29;20392;-84
2023/11/14 13:06:22;;;;;;;9.82;1.70;;;;;;;;;;5907279;29;20055;-85
2023/11/14 13:09:25;;;;;;;11.75;2.72;;;;;;;;;;5922530;29;20047;-84
2023/11/14 13:12:27;;;;;;;;;;;;;;;;;;5900456;29;20059;-85
2023/11/14 13:15:29;;;;;;;10.98;2.20;;;;;;;;;;5903839;29;19925;-84
2023/11/14 13:18:30;;;;;;;9.45;1.92;;;;;;;;;;5921603;30;20043;-85
2023/11/14 13:21:33;;;;;;;10.13;1.83;;;;;;;;;;5921437;29;20058;-84
2023/11/14 13:24:35;;;;;;;8.15;1.77;;;;;;;;;;5906837;29;20057;-85
2023/11/14 13:27:37;;;;;;;11.80;2.00;;;;;;;;;;5924198;29;20054;-85
2023/11/14 13:30:40;;;;;;;9.45;1.98;;;;;;;;;;5897886;30;20048;-85
2023/11/14 13:33:42;;;;;;;;;;;;;;;;;;5886534;30;20051;-84
2023/11/14 13:36:44;;;;;;;7.60;1.63;;;;;;;;;;5918924;29;19941;-85
2023/11/14 13:39:46;;;;;;;7.87;2.33;;;;;;;;;;5925332;30;20047;-85
2023/11/14 13:42:50;;;;;;;6.30;1.73;;;;;;;;;;5919991;29;20054;-85
2023/11/14 13:45:52;;;;;;;4.10;1.27;;;;;;;;;;5914646;29;20208;-83
2023/11/14 13:48:55;;;;;;;9.40;2.25;;;;;;;;;;5909369;29;20080;-83
2023/11/14 13:51:57;;;;;;;;;;;;;;;;;;5935360;29;20062;-84
2023/11/14 13:54:59;;;;;;;6.03;1.60;;;;;;;;;;5919192;29;19945;-83
2023/11/14 13:58:04;;;;;;;8.68;1.67;;;;;;;;;;5919064;30;20055;-82
2023/11/14 14:01:16;;;;;;;5.28;1.23;;;;;;;;;;5929672;29;20899;-83
2023/11/14 14:04:18;;;;;;;8.23;1.63;;;;;;;;;;5911905;30;20192;-83
2023/11/14 14:07:20;;;;;;;6.10;1.60;;;;;;;;;;5933210;29;20090;-83
2023/11/14 14:10:23;;;;;;;6.72;2.17;;;;;;;;;;5925706;29;20085;-84
2023/11/14 14:13:27;;;;;;;7.25;1.83;;;;;;;;;;5917493;29;20051;-85
2023/11/14 14:16:28;;;;;;;9.90;1.60;;;;;;;;;;5931502;29;20051;-85
2023/11/14 14:19:30;;;;;;;3.28;1.00;;;;;;;;;;5936473;30;20043;-84
2023/11/14 14:22:32;;;;;;;4.35;1.40;;;;;;;;;;5936713;30;20053;-85
2023/11/14 14:25:34;;;;;;;4.72;1.33;;;;;;;;;;5938881;29;20096;-86
2023/11/14 14:28:36;;;;;;;5.90;1.42;;;;;;;;;;5935019;29;20184;-85
2023/11/14 14:31:42;;;;;;;9.38;1.70;;;;;;;;;;5916236;29;20704;-85
2023/11/14 14:34:45;;;;;;;8.38;1.42;;;;;;;;;;5918975;29;20052;-85
2023/11/14 14:37:47;;;;;;;7.60;1.40;;;;;;;;;;5919250;29;20059;-84
2023/11/14 14:40:49;;;;;;;5.22;1.05;;;;;;;;;;5933829;29;20063;-85
2023/11/14 14:43:52;;;;;;;6.72;1.70;;;;;;;;;;5933556;29;20112;-85
2023/11/14 14:46:54;;;;;;;5.50;1.70;;;;;;;;;;5933252;29;20044;-84
2023/11/14 14:49:57;;;;;;;9.02;1.58;;;;;;;;;;5918965;29;20126;-85
2023/11/14 14:52:59;;;;;;;9.20;2.20;;;;;;;;;;5920134;29;20124;-85
2023/11/14 14:56:01;;;;;;;6.90;1.42;;;;;;;;;;5919329;29;20051;-85
2023/11/14 14:59:09;;;;;;;3.88;1.05;;;;;;;;;;5903184;29;20067;-85
2023/11/14 15:02:10;;;;;;;5.13;1.50;;;;;;;;;;5918846;29;20081;-86
2023/11/14 15:05:12;;;;;;;6.25;1.52;;;;;;;;;;5936317;29;20071;-85
2023/11/14 15:08:14;;;;;;;5.32;1.20;;;;;;;;;;5918369;29;20058;-85
2023/11/14 15:11:16;;;;;;;6.70;1.38;;;;;;;;;;5919333;29;20043;-84
2023/11/14 15:14:17;;;;;;;4.88;1.27;;;;;;;;;;5935031;29;20062;-85
2023/11/14 15:17:20;;;;;;;4.85;1.33;;;;;;;;;;5933509;29;20582;-85
2023/11/14 15:20:23;;;;;;;3.35;1.73;;;;;;;;;;5901392;29;21246;-84
2023/11/14 15:23:24;;;;;;;4.20;1.38;;;;;;;;;;5918256;29;20066;-84
2023/11/14 15:26:27;;;;;;;5.20;1.17;;;;;;;;;;5919070;29;20083;-85
2023/11/14 15:29:28;;;;;;;5.47;1.10;;;;;;;;;;5912620;29;20047;-85
2023/11/14 15:32:31;;;;;;;3.83;1.17;;;;;;;;;;5926497;29;20043;-85
2023/11/14 15:35:33;;;;;;;4.70;1.30;;;;;;;;;;5922213;29;20047;-83
2023/11/14 15:38:35;;;;;;;4.43;0.95;;;;;;;;;;5916166;29;20055;-85
2023/11/14 15:41:37;;;;;;;2.60;1.00;;;;;;;;;;5937444;29;20048;-84
2023/11/14 15:44:38;;;;;;;6.45;1.20;;;;;;;;;;5920413;29;20053;-84
2023/11/14 15:47:40;;;;;;;3.00;1.00;;;;;;;;;;5937468;29;20071;-85
2023/11/14 15:50:42;;;;;;;2.60;0.80;;;;;;;;;;5918630;29;20092;-84
2023/11/14 15:53:47;;;;;;;2.63;0.85;;;;;;;;;;5918032;29;20055;-84
2023/11/14 15:56:49;;;;;;;5.97;1.20;;;;;;;;;;5904475;29;20542;-83
2023/11/14 15:59:51;;;;;;;3.38;1.17;;;;;;;;;;5931476;29;20039;-83
2023/11/14 16:02:52;;;;;;;3.47;1.10;;;;;;;;;;5926821;29;20225;-83
2023/11/14 16:05:54;;;;;;;5.47;1.30;;;;;;;;;;5914072;29;20262;-84
2023/11/14 16:08:56;;;;;;;3.58;1.20;;;;;;;;;;5914556;29;20513;-84
2023/11/14 16:11:58;;;;;;;4.55;1.10;;;;;;;;;;5915133;29;20075;-82
2023/11/14 16:15:02;;;;;;;2.90;0.98;;;;;;;;;;5926539;29;20051;-83
2023/11/14 16:18:06;;;;;;;4.18;1.00;;;;;;;;;;5926183;29;20141;-84
2023/11/14 16:21:07;;;;;;;4.40;1.15;;;;;;;;;;5927970;29;20059;-84
2023/11/14 16:24:09;;;;;;;3.33;1.40;;;;;;;;;;5914821;29;20148;-84
2023/11/14 16:27:11;;;;;;;2.83;1.00;;;;;;;;;;5915659;29;20184;-84
2023/11/14 16:30:13;;;;;;;5.63;1.35;;;;;;;;;;5913976;29;20063;-84
2023/11/14 16:33:15;;;;;;;6.30;1.38;;;;;;;;;;5911257;29;20504;-84
2023/11/14 16:36:17;;;;;;;3.50;1.00;;;;;;;;;;5927977;29;20075;-83
2023/11/14 16:39:18;;;;;;;3.67;1.23;;;;;;;;;;5913746;29;20128;-83
2023/11/14 16:42:20;;;;;;;2.50;1.30;;;;;;;;;;5912216;29;20092;-83
2023/11/14 16:45:24;;;;;;;5.43;1.52;;;;;;;;;;5926921;29;20051;-84
2023/11/14 16:48:25;;;;;;;5.28;1.63;;;;;;;;;;5908884;29;20094;-82
2023/11/14 16:51:30;;;;;;;3.92;1.48;;;;;;;;;;5923697;29;20658;-83
2023/11/14 16:54:33;;;;;;;3.75;1.20;;;;;;;;;;5920703;29;20048;-83
2023/11/14 16:57:37;;;;;;;4.78;1.13;;;;;;;;;;5894745;29;20134;-83
2023/11/14 17:00:39;;;;;;;2.75;1.30;;;;;;;;;;5916264;29;20054;-82
2023/11/14 17:03:41;;;;;;;3.75;1.33;;;;;;;;;;5930550;29;20151;-82
2023/11/14 17:06:44;;;;;;;2.80;1.45;;;;;;;;;;5906314;29;20906;-82
2023/11/14 17:09:46;;;;;;;6.50;1.65;;;;;;;;;;5914808;29;20062;-83
2023/11/14 17:12:51;;;;;;;1.88;1.33;;;;;;;;;;5928844;29;20134;-81
2023/11/14 17:15:53;;;;;;;3.65;1.30;;;;;;;;;;5927197;29;20151;-81
2023/11/14 17:18:54;;;;;;;2.72;1.10;;;;;;;;;;5912591;29;20051;-83
2023/11/14 17:21:56;;;;;;;3.08;1.25;;;;;;;;;;5929222;29;20059;-82
2023/11/14 17:24:58;;;;;;;1.10;0.90;;;;;;;;;;5926420;29;20408;-83
2023/11/14 17:27:59;;;;;;;13.82;6.40;;;;;;;;;;5918591;29;20051;-83
2023/11/14 17:31:02;;;;;;;16.80;5.10;;;;;;;;;;5931119;29;20148;-85
2023/11/14 17:34:04;;;;;;;3.35;1.40;;;;;;;;;;5935514;29;20130;-84
2023/11/14 17:37:07;;;;;;;10.02;3.90;;;;;;;;;;5918463;29;20190;-85
2023/11/14 17:40:09;;;;;;;;;;;;;;;;;;5926104;29;20051;-84
2023/11/14 17:43:11;;;;;;;6.65;1.25;;;;;;;;;;5918341;29;20397;-84
2023/11/14 17:46:12;;;;;;;4.95;1.30;;;;;;;;;;5936960;29;20373;-84
2023/11/14 17:49:15;;;;;;;2.08;0.95;;;;;;;;;;5922480;29;20071;-85
2023/11/14 17:52:17;;;;;;;3.03;1.38;;;;;;;;;;5934287;29;20192;-84
2023/11/14 17:55:19;;;;;;;2.05;1.40;;;;;;;;;;5923059;29;20110;-85
2023/11/14 17:58:22;;;;;;;1.77;1.02;;;;;;;;;;5920591;30;20059;-85
2023/11/14 18:01:27;;;;;;;1.30;0.95;;;;;;;;;;5918530;29;20090;-85
2023/11/14 18:04:29;;;;;;;2.72;1.20;;;;;;;;;;5909627;29;20051;-85
2023/11/14 18:07:31;;;;;;;2.38;1.63;;;;;;;;;;5935232;29;20070;-85
2023/11/14 18:10:34;;;;;;;2.60;1.52;;;;;;;;;;5933257;29;20055;-85